ストックホルム・アーランダ空港の過去48時間の天気

ストックホルム・アーランダ空港 (Stockholm / Arlanda)

現在時刻: 5/23 20:57 CEST (5/23 18:57 UTC) 以下の時間は現地時間です。

過去48時間のMETAR気象情報
時間 風向 風速(m/s) 視程 気温(℃) 湿度(%) 気圧(hPa) 天気現象
23 20:20 南南東 3 10km以上 15 82 1011
23 19:50 南東 3 10km以上 15 82 1011
23 19:20 東南東 2 10km以上 15 77 1011
23 18:50 不定 2 10km以上 15 82 1011
23 18:20 不定 2 10km以上 14 88 1011
23 17:50 不定 2 10km以上 14 88 1011
23 17:20 不定 1 10km以上 13 94 1011
23 16:50 西 2 3200m 12 100 1011 霧雨
23 16:20 西 3 5000m 12 100 1011 霧雨
23 15:50 西 4 10km以上 12 100 1011
23 15:20 西 3 10km以上 12 100 1011
23 14:50 西 3 10km以上 12 94 1011
23 14:20 西南西 3 10km以上 12 94 1011 弱い霧雨
23 13:50 西南西 3 10km以上 11 100 1011 弱い雨
23 13:20 北北東 2 8000m 11 94 1011 弱い雨
23 12:50 不定 2 7000m 11 94 1011 弱い雨
23 12:20 不定 1 5000m 10 100 1011 弱い雨
23 11:50 2 7000m 10 100 1011 弱い雨
23 11:20 北西 3 5000m 10 100 1011 弱いしゅう雨
23 10:50 西 4 3500m 10 100 1011 しゅう雨
23 10:20 北北東 3 3400m 10 100 1010 しゅう雨
23 09:50 4 8000m 10 100 1011 弱いしゅう雨
23 09:20 北西 4 10km以上 11 87 1011
23 08:50 西北西 3 10km以上 11 87 1011
23 08:20 北西 3 10km以上 10 94 1011
23 07:50 北北西 2 10km以上 10 94 1010
23 07:20 3 9000m 10 94 1010
23 06:50 北北西 3 9000m 10 94 1010 もや
23 06:20 北西 4 8000m 10 94 1010
23 05:50 北北西 4 6000m 10 100 1010 もや
23 05:20 北北西 4 7000m 10 100 1010 もや
23 04:50 北西 3 8000m 10 94 1010
23 04:20 3 5000m 10 94 1009 もや
23 03:50 北北東 3 10km以上 10 94 1009
23 03:20 北東 4 10km以上 11 94 1009
23 02:50 北北東 3 10km以上 11 94 1010
23 02:20 北東 3 10km以上 12 88 1010
23 01:50 4 10km以上 13 82 1010
23 01:20 北北東 4 10km以上 13 82 1010
23 00:50 3 10km以上 13 82 1010
23 00:20 北北西 3 10km以上 13 82 1010
22 23:50 北西 2 10km以上 13 82 1010
22 23:20 北北西 2 10km以上 13 82 1011
22 22:50 北北西 2 10km以上 14 77 1010
22 22:20 北北東 3 10km以上 15 72 1010
22 21:50 北東 5 10km以上 16 68 1010
22 21:20 北東 4 10km以上 17 63 1010
22 20:50 東北東 4 10km以上 18 60 1010
22 20:20 北北東 4 10km以上 18 60 1010
22 19:50 東北東 5 10km以上 19 56 1010
22 19:20 東北東 6 10km以上 20 53 1010
22 18:50 東北東 6 10km以上 21 49 1010
22 18:20 東北東 7 10km以上 22 50 1009
22 17:50 東北東 7 10km以上 22 50 1009
22 17:20 北東 7 10km以上 23 50 1009
22 16:50 北北東 7 10km以上 23 50 1010
22 16:20 北北東 7 10km以上 23 50 1010
22 15:50 北北東 7 10km以上 23 53 1010
22 15:20 北東 6 10km以上 24 50 1010
22 14:50 北東 4 10km以上 24 50 1010
22 14:20 北北東 4 10km以上 24 50 1010
22 13:50 東北東 4 10km以上 24 50 1010
22 13:20 北北東 4 10km以上 23 50 1010
22 12:50 北北東 3 10km以上 23 53 1010
22 12:20 北北東 3 10km以上 23 53 1010
22 11:50 北北東 4 10km以上 22 53 1010
22 11:20 東北東 4 10km以上 22 57 1010
22 10:50 北北東 4 10km以上 21 56 1011
22 10:20 北東 4 10km以上 20 60 1010
22 09:50 北東 4 10km以上 19 64 1010
22 09:20 北東 4 10km以上 18 68 1010
22 08:50 3 10km以上 16 72 1010
22 08:20 北北東 4 10km以上 15 72 1010
22 07:50 北北東 5 10km以上 14 77 1011
22 07:20 北北東 4 10km以上 14 77 1011
22 06:50 北北東 5 10km以上 13 82 1011
22 06:20 北北東 5 10km以上 13 82 1011
22 05:50 北北東 5 10km以上 12 88 1011
22 05:20 北北東 4 10km以上 12 88 1011
22 04:50 4 10km以上 12 88 1011
22 04:20 4 10km以上 12 88 1011
22 03:50 北北東 4 10km以上 12 94 1011
22 03:20 北北東 4 10km以上 13 88 1011
22 02:50 4 10km以上 13 88 1010
22 02:20 北北東 4 10km以上 14 82 1010
22 01:50 北北東 4 10km以上 14 88 1011
22 01:20 北北東 4 10km以上 15 82 1011
22 00:50 北北東 3 10km以上 15 82 1011
22 00:20 北東 4 10km以上 16 82 1011
21 23:50 北東 4 10km以上 17 77 1011
21 23:20 東北東 3 10km以上 18 73 1011
21 22:50 北東 3 10km以上 18 73 1011
21 22:20 東北東 2 10km以上 19 68 1011
21 21:50 2 10km以上 19 68 1011
21 21:20 2 10km以上 19 68 1011
ESSA 231820Z 16006KT CAVOK 15/12 Q1011 NOSIG
ESSA 231750Z 14005KT 9999 FEW011 15/12 Q1011 NOSIG
ESSA 231720Z 11004KT 9999 FEW017 15/11 Q1011 NOSIG
ESSA 231650Z VRB03KT 9999 FEW011 SCT016 15/12 Q1011 NOSIG
ESSA 231620Z VRB03KT 9999 BKN015 14/12 Q1011 BECMG SCT004 BKN010
ESSA 231550Z VRB03KT 9999 BKN007 14/12 Q1011 BECMG SCT004 BKN010
ESSA 231520Z VRB01KT 9999 FEW003 BKN005 13/12 Q1011 BECMG SCT004 BKN010
ESSA 231450Z 26004KT 3200 DZ FEW003 BKN006 12/12 Q1011 BECMG SCT004 BKN010
ESSA 231420Z 26006KT 5000 DZ OVC005 12/12 Q1011 BECMG SCT004 BKN010
ESSA 231350Z 27007KT 9999 OVC006 12/12 Q1011 BECMG SCT004 BKN010
ESSA 231320Z 26005KT 9999 BKN007 12/12 Q1011 BECMG SCT004 BKN010
ESSA 231250Z 26006KT 9999 BKN005 12/11 Q1011 BECMG SCT004 BKN010
ESSA 231220Z 24005KT 9999 -DZ BKN004 OVC006 12/11 Q1011 BECMG SCT004 BKN010
ESSA 231150Z 25005KT 9999 -RA BKN004 11/11 Q1011 BECMG SCT004 BKN010
ESSA 231120Z 03004KT 8000 -RA BKN004 11/10 Q1011 NOSIG
ESSA 231050Z VRB03KT 7000 -RA BKN004 11/10 Q1011 NOSIG
ESSA 231020Z VRB02KT 5000 -RA BKN004 10/10 Q1011 TEMPO 6000 BKN040
ESSA 230950Z 36003KT 7000 -RA BKN005 10/10 Q1011 TEMPO 6000 BKN040
ESSA 230920Z 32005KT 5000 -SHRA SCT004 BKN020 10/10 Q1011 RESHRA TEMPO 6000 BKN040
ESSA 230850Z 26008KT 3500 SHRA BKN004 BKN045CB 10/10 Q1011 TEMPO 6000 BKN040
ESSA 230820Z 02006KT 3400 SHRA SCT004 BKN014 BKN030CB 10/10 Q1010 TEMPO SHRA BKN005 BKN030CB
ESSA 230750Z 36007KT 8000 -SHRA SCT004 BKN038CB 10/10 Q1011 TEMPO SHRA BKN005 BKN030CB
ESSA 230720Z 31007KT 9999 SCT008 BKN028 11/09 Q1011 NOSIG
ESSA 230650Z 29006KT 9999 SCT009 BKN026 11/09 Q1011 NOSIG
ESSA 230620Z 31005KT 9999 OVC007 10/09 Q1011 NOSIG
ESSA 230550Z 34004KT 9999 OVC005 10/09 Q1010 NOSIG
ESSA 230520Z 35005KT 300V010 9000 OVC003 10/09 Q1010 NOSIG
ESSA 230450Z 33006KT 9000 BR OVC003 10/09 Q1010 NOSIG
ESSA 230420Z 32007KT 8000 OVC003 10/09 Q1010 NOSIG
ESSA 230350Z 33007KT 6000 BR OVC003 10/10 Q1010 NOSIG
ESSA 230320Z 33008KT 7000 BR OVC003 10/10 Q1010 NOSIG
ESSA 230250Z 31005KT 290V350 8000 BKN004 OVC120 10/09 Q1010 NOSIG
ESSA 230220Z 36005KT 5000 BR OVC110 10/09 Q1009 NOSIG
ESSA 230150Z 02005KT 9999 BKN120 10/09 Q1009 NOSIG
ESSA 230120Z 04007KT CAVOK 11/10 Q1009 NOSIG
ESSA 230050Z 02006KT CAVOK 11/10 Q1010 NOSIG
ESSA 230020Z 04005KT CAVOK 12/10 Q1010 NOSIG
ESSA 222350Z 36007KT 9999 BKN048 13/10 Q1010 NOSIG
ESSA 222320Z 02007KT 9999 OVC048 13/10 Q1010 NOSIG
ESSA 222250Z 36006KT 9999 BKN048 13/10 Q1010 NOSIG
ESSA 222220Z 34005KT 9999 OVC047 13/10 Q1010 NOSIG
ESSA 222150Z 31004KT CAVOK 13/10 Q1010 NOSIG
ESSA 222120Z 33003KT CAVOK 13/10 Q1011 NOSIG
ESSA 222050Z 33003KT 310V010 CAVOK 14/10 Q1010 NOSIG
ESSA 222020Z 03005KT 350V060 CAVOK 15/10 Q1010 NOSIG
ESSA 221950Z 04010KT CAVOK 16/10 Q1010 NOSIG
ESSA 221920Z 04007KT CAVOK 17/10 Q1010 NOSIG
ESSA 221850Z 07008KT CAVOK 18/10 Q1010 NOSIG
ESSA 221820Z 03008KT CAVOK 18/10 Q1010 NOSIG
ESSA 221750Z 07010KT CAVOK 19/10 Q1010 NOSIG
ESSA 221720Z 06011KT CAVOK 20/10 Q1010 NOSIG
ESSA 221650Z 06012KT CAVOK 21/10 Q1010 NOSIG
ESSA 221620Z 06013KT CAVOK 22/11 Q1009 NOSIG
ESSA 221550Z 06013KT CAVOK 22/11 Q1009 NOSIG
ESSA 221520Z 05013KT CAVOK 23/12 Q1009 NOSIG
ESSA 221450Z 02013KT CAVOK 23/12 Q1010 NOSIG
ESSA 221420Z 02013KT CAVOK 23/12 Q1010 NOSIG
ESSA 221350Z 02013KT CAVOK 23/13 Q1010 NOSIG
ESSA 221320Z 04012KT CAVOK 24/13 Q1010 NOSIG
ESSA 221250Z 04008KT 360V080 CAVOK 24/13 Q1010 NOSIG
ESSA 221220Z 03008KT 350V050 CAVOK 24/13 Q1010 NOSIG
ESSA 221150Z 06007KT 010V100 CAVOK 24/13 Q1010 NOSIG
ESSA 221120Z 02007KT 330V080 CAVOK 23/12 Q1010 NOSIG
ESSA 221050Z 02006KT 340V060 CAVOK 23/13 Q1010 NOSIG
ESSA 221020Z 03006KT 350V080 CAVOK 23/13 Q1010 NOSIG
ESSA 220950Z 03008KT CAVOK 22/12 Q1010 NOSIG
ESSA 220920Z 06008KT CAVOK 22/13 Q1010 NOSIG
ESSA 220850Z 02007KT CAVOK 21/12 Q1011 NOSIG
ESSA 220820Z 04008KT 360V070 CAVOK 20/12 Q1010 NOSIG
ESSA 220750Z 04008KT CAVOK 19/12 Q1010 NOSIG
ESSA 220720Z 05007KT CAVOK 18/12 Q1010 NOSIG
ESSA 220650Z 01006KT CAVOK 16/11 Q1010 NOSIG
ESSA 220620Z 02008KT CAVOK 15/10 Q1010 NOSIG
ESSA 220550Z 02009KT CAVOK 14/10 Q1011 NOSIG
ESSA 220520Z 03008KT CAVOK 14/10 Q1011 NOSIG
ESSA 220450Z 03009KT CAVOK 13/10 Q1011 NOSIG
ESSA 220420Z 02009KT CAVOK 13/10 Q1011 NOSIG
ESSA 220350Z 02009KT CAVOK 12/10 Q1011 NOSIG
ESSA 220320Z 02008KT CAVOK 12/10 Q1011 NOSIG
ESSA 220250Z 01007KT CAVOK 12/10 Q1011 NOSIG
ESSA 220220Z 36007KT CAVOK 12/10 Q1011 NOSIG
ESSA 220150Z 03007KT CAVOK 12/11 Q1011 NOSIG
ESSA 220120Z 02007KT CAVOK 13/11 Q1011 NOSIG
ESSA 220050Z 01007KT CAVOK 13/11 Q1010 NOSIG
ESSA 220020Z 02008KT CAVOK 14/11 Q1010 NOSIG
ESSA 212350Z 02007KT CAVOK 14/12 Q1011 NOSIG
ESSA 212320Z 02007KT CAVOK 15/12 Q1011 NOSIG
ESSA 212250Z 02006KT CAVOK 15/12 Q1011 NOSIG
ESSA 212220Z 04007KT CAVOK 16/13 Q1011 NOSIG
ESSA 212150Z 05007KT CAVOK 17/13 Q1011 NOSIG
ESSA 212120Z 07006KT CAVOK 18/13 Q1011 NOSIG
ESSA 212050Z 05006KT CAVOK 18/13 Q1011 NOSIG
ESSA 212020Z 07004KT CAVOK 19/13 Q1011 NOSIG
ESSA 211950Z 10003KT CAVOK 19/13 Q1011 NOSIG
ESSA 211920Z 09004KT 050V120 CAVOK 19/13 Q1011 NOSIG